Time;durP1;ratioP1;P1;durP2;ratioP2;P2;SDS_P1;SDS_P2;PMS_P1;PMS_P2;Temp;Humidity;BMP_temperature;BMP_pressure;BME280_temperature;BME280_humidity;BME280_pressure;Samples;Min_cycle;Max_cycle;Signal;HPM_P1;HPM_P2
2022/01/23 00:00:03;;;;;;;4.97;3.05;;;;;;;;;;5042000;28;20018;-71
2022/01/23 00:02:31;;;;;;;7.35;3.60;;;;;;;;;;5041786;28;20447;-70
2022/01/23 00:04:57;;;;;;;6.43;3.45;;;;;;;;;;5044733;28;20018;-71
2022/01/23 00:07:25;;;;;;;6.80;3.60;;;;;;;;;;5022811;28;20071;-71
2022/01/23 00:09:51;;;;;;;5.45;3.10;;;;;;;;;;5023651;28;20020;-71
2022/01/23 00:12:21;;;;;;;5.93;3.53;;;;;;;;;;5025904;28;20492;-73
2022/01/23 00:17:35;;;;;;;5.20;3.00;;;;;;;;;;5039203;28;20043;-70
2022/01/23 00:20:03;;;;;;;5.20;3.08;;;;;;;;;;5027564;28;20144;-70
2022/01/23 00:22:43;;;;;;;7.53;3.65;;;;;;;;;;5020440;28;20060;-69
2022/01/23 00:30:42;;;;;;;7.78;4.35;;;;;;;;;;5046570;28;20051;-70
2022/01/23 00:33:08;;;;;;;6.60;3.30;;;;;;;;;;5022961;28;20052;-72
2022/01/23 00:35:36;;;;;;;5.55;3.08;;;;;;;;;;5044187;28;20032;-70
2022/01/23 00:38:04;;;;;;;6.65;3.78;;;;;;;;;;5041962;28;20040;-71
2022/01/23 00:40:30;;;;;;;5.43;3.25;;;;;;;;;;5047938;28;20075;-71
2022/01/23 00:42:58;;;;;;;7.00;3.28;;;;;;;;;;5049837;28;20035;-71
2022/01/23 00:45:31;;;;;;;5.97;3.38;;;;;;;;;;5049142;28;20053;-73
2022/01/23 00:48:02;;;;;;;9.10;3.60;;;;;;;;;;5030929;28;20390;-72
2022/01/23 00:50:30;;;;;;;6.88;3.50;;;;;;;;;;5028366;28;20524;-73
2022/01/23 00:52:56;;;;;;;6.20;3.40;;;;;;;;;;5049492;28;20255;-71
2022/01/23 00:55:22;;;;;;;9.05;4.07;;;;;;;;;;5049328;28;20112;-70
2022/01/23 00:57:48;;;;;;;6.57;3.63;;;;;;;;;;5048962;28;20489;-70
2022/01/23 01:00:14;;;;;;;6.97;3.22;;;;;;;;;;5031880;28;20056;-70
2022/01/23 01:02:40;;;;;;;8.90;3.38;;;;;;;;;;5056278;28;20021;-70
2022/01/23 01:05:07;;;;;;;6.22;3.63;;;;;;;;;;5051760;28;20032;-71
2022/01/23 01:07:33;;;;;;;6.35;3.60;;;;;;;;;;5051627;28;20033;-72
2022/01/23 01:10:06;;;;;;;7.68;3.55;;;;;;;;;;5054091;28;20383;-73
2022/01/23 01:12:55;;;;;;;5.18;3.15;;;;;;;;;;5052525;28;20023;-70
2022/01/23 01:31:56;;;;;;;8.45;3.30;;;;;;;;;;5051778;28;20107;-72
2022/01/23 01:34:35;;;;;;;10.32;3.72;;;;;;;;;;5034390;28;20032;-72
2022/01/23 01:37:01;;;;;;;6.88;3.22;;;;;;;;;;5051801;28;20036;-72
2022/01/23 01:39:28;;;;;;;7.90;3.70;;;;;;;;;;5051296;28;20025;-72
2022/01/23 01:41:55;;;;;;;8.25;3.40;;;;;;;;;;5051330;28;20025;-73
2022/01/23 01:44:22;;;;;;;6.97;3.53;;;;;;;;;;5051871;28;20025;-71
2022/01/23 01:46:49;;;;;;;6.15;3.25;;;;;;;;;;5030491;28;20069;-71
2022/01/23 01:49:22;;;;;;;6.55;3.45;;;;;;;;;;5031856;28;20032;-73
2022/01/23 01:51:48;;;;;;;5.95;3.45;;;;;;;;;;5031820;28;20021;-74
2022/01/23 01:54:18;;;;;;;8.30;3.95;;;;;;;;;;5031652;28;20021;-71
2022/01/23 01:57:02;;;;;;;8.77;3.78;;;;;;;;;;5030953;28;20079;-72
2022/01/23 02:00:11;;;;;;;5.45;3.70;;;;;;;;;;5029469;28;20029;-72
2022/01/23 02:10:33;;;;;;;6.65;3.42;;;;;;;;;;5031775;28;20043;-71
2022/01/23 02:13:14;;;;;;;6.95;3.17;;;;;;;;;;5031389;28;20021;-72
2022/01/23 02:15:59;;;;;;;;;;;;;;;;;;5031951;28;20037;-71
2022/01/23 02:22:24;;;;;;;8.63;3.30;;;;;;;;;;5031726;28;19912;-72
2022/01/23 02:24:35;;;;;;;6.35;3.38;;;;;;;;;;5036777;28;20447;-73
2022/01/23 02:57:02;;;;;;;7.20;3.63;;;;;;;;;;5053798;28;20029;-70
2022/01/23 02:59:31;;;;;;;5.47;3.40;;;;;;;;;;5053089;28;20589;-70
2022/01/23 03:02:04;;;;;;;5.10;3.15;;;;;;;;;;5067257;28;20029;-70
2022/01/23 03:04:33;;;;;;;6.05;3.38;;;;;;;;;;5045244;28;20387;-70
2022/01/23 03:10:01;;;;;;;6.03;3.83;;;;;;;;;;5054647;28;20434;-71
2022/01/23 03:26:38;;;;;;;6.78;3.50;;;;;;;;;;5045559;28;20056;-72
2022/01/23 03:29:21;;;;;;;6.43;3.37;;;;;;;;;;5048802;28;20052;-71
2022/01/23 03:34:20;;;;;;;6.32;3.03;;;;;;;;;;5049186;28;20033;-73
2022/01/23 03:36:46;;;;;;;6.03;3.13;;;;;;;;;;5031100;28;20092;-71
2022/01/23 03:39:13;;;;;;;7.38;3.53;;;;;;;;;;5049178;28;20021;-72
2022/01/23 03:41:40;;;;;;;6.50;3.28;;;;;;;;;;5048770;28;20021;-71
2022/01/23 03:44:09;;;;;;;6.78;3.20;;;;;;;;;;5031293;28;20853;-73
2022/01/23 03:49:32;;;;;;;6.53;3.42;;;;;;;;;;5049677;28;20051;-72
2022/01/23 03:52:04;;;;;;;7.82;3.85;;;;;;;;;;5048308;28;20021;-71
2022/01/23 03:54:30;;;;;;;6.45;3.30;;;;;;;;;;5048731;28;20048;-72
2022/01/23 03:57:01;;;;;;;5.35;2.88;;;;;;;;;;5048277;28;20496;-72
2022/01/23 03:59:27;;;;;;;;;;;;;;;;;;5048659;28;20033;-73
2022/01/23 04:01:53;;;;;;;8.82;3.50;;;;;;;;;;5048565;28;20005;-73
2022/01/23 04:07:22;;;;;;;6.20;3.35;;;;;;;;;;5048534;28;20102;-73
2022/01/23 04:09:49;;;;;;;6.03;3.22;;;;;;;;;;5010935;28;20025;-73
2022/01/23 04:12:47;;;;;;;10.25;3.40;;;;;;;;;;5044135;28;20389;-74
2022/01/23 04:33:59;;;;;;;4.78;2.88;;;;;;;;;;5046837;28;20093;-72
2022/01/23 04:45:17;;;;;;;5.03;2.90;;;;;;;;;;5030023;28;20033;-73
2022/01/23 05:01:22;;;;;;;5.28;3.10;;;;;;;;;;5054657;28;20069;-72
2022/01/23 05:06:41;;;;;;;18.25;3.08;;;;;;;;;;5028131;28;20042;-74
2022/01/23 05:09:08;;;;;;;8.32;2.97;;;;;;;;;;5043573;28;20501;-73
2022/01/23 05:11:35;;;;;;;7.50;2.80;;;;;;;;;;5030063;28;20017;-75
2022/01/23 05:14:11;;;;;;;6.72;3.30;;;;;;;;;;5047340;28;20021;-74
2022/01/23 05:16:47;;;;;;;5.20;2.92;;;;;;;;;;5037293;28;20044;-75
2022/01/23 05:19:38;;;;;;;5.70;3.10;;;;;;;;;;5051178;28;20021;-77
2022/01/23 05:25:10;;;;;;;4.68;2.50;;;;;;;;;;5042578;28;20101;-74
2022/01/23 05:27:36;;;;;;;6.90;3.22;;;;;;;;;;5039257;28;20035;-75
2022/01/23 05:30:04;;;;;;;5.60;3.08;;;;;;;;;;5041089;28;20203;-74
2022/01/23 05:32:40;;;;;;;5.30;2.45;;;;;;;;;;5037447;28;20024;-73
2022/01/23 05:35:07;;;;;;;12.07;3.58;;;;;;;;;;5039015;28;20925;-72
2022/01/23 05:37:33;;;;;;;6.60;2.60;;;;;;;;;;5035910;28;20522;-73
2022/01/23 05:40:00;;;;;;;6.88;2.55;;;;;;;;;;5039729;28;20051;-72
2022/01/23 05:42:27;;;;;;;4.90;2.80;;;;;;;;;;5036918;28;20031;-73
2022/01/23 05:44:53;;;;;;;8.23;3.10;;;;;;;;;;5038689;28;20052;-73
2022/01/23 05:47:19;;;;;;;5.97;3.10;;;;;;;;;;5037631;28;20562;-74
2022/01/23 05:49:45;;;;;;;4.60;2.60;;;;;;;;;;5027495;28;20386;-74
2022/01/23 05:52:11;;;;;;;5.70;2.83;;;;;;;;;;5034221;28;20033;-73
2022/01/23 05:54:37;;;;;;;5.70;2.55;;;;;;;;;;5051399;28;20052;-73
2022/01/23 05:57:04;;;;;;;6.20;2.75;;;;;;;;;;5042573;28;20107;-74
2022/01/23 05:59:30;;;;;;;6.65;2.33;;;;;;;;;;5043581;28;20025;-74
2022/01/23 06:01:56;;;;;;;5.18;2.45;;;;;;;;;;5044299;28;20026;-75
2022/01/23 06:04:24;;;;;;;7.93;2.47;;;;;;;;;;5043307;28;20029;-75
2022/01/23 06:06:50;;;;;;;4.95;2.40;;;;;;;;;;5044106;28;20040;-74
2022/01/23 06:09:18;;;;;;;5.80;2.53;;;;;;;;;;5039471;28;20108;-73
2022/01/23 06:11:44;;;;;;;7.25;2.85;;;;;;;;;;5043099;28;20024;-73
2022/01/23 06:14:10;;;;;;;4.65;2.70;;;;;;;;;;5045895;28;20036;-75
2022/01/23 06:16:37;;;;;;;6.32;2.55;;;;;;;;;;5042721;28;20104;-75
2022/01/23 06:19:05;;;;;;;5.38;2.85;;;;;;;;;;5039904;28;20052;-75
2022/01/23 06:21:31;;;;;;;5.70;2.20;;;;;;;;;;5044682;28;20387;-73
2022/01/23 06:24:09;;;;;;;6.07;2.67;;;;;;;;;;5039217;28;20464;-73
2022/01/23 06:26:46;;;;;;;5.70;2.22;;;;;;;;;;5025269;28;20029;-74
2022/01/23 06:29:13;;;;;;;5.63;2.90;;;;;;;;;;5042476;28;20873;-73
2022/01/23 06:31:39;;;;;;;6.15;2.55;;;;;;;;;;5042173;28;20067;-74
2022/01/23 06:34:09;;;;;;;5.63;2.63;;;;;;;;;;5022908;28;20037;-75
2022/01/23 06:36:35;;;;;;;4.60;2.58;;;;;;;;;;5024564;28;20063;-75
2022/01/23 06:39:03;;;;;;;3.90;1.98;;;;;;;;;;5050318;28;20497;-75
2022/01/23 06:41:29;;;;;;;5.07;2.10;;;;;;;;;;5031882;28;20029;-75
2022/01/23 06:43:55;;;;;;;4.70;2.25;;;;;;;;;;5050277;28;20155;-74
2022/01/23 06:46:21;;;;;;;6.38;2.80;;;;;;;;;;5049998;28;20286;-74
2022/01/23 06:48:47;;;;;;;4.18;2.22;;;;;;;;;;5032938;28;20025;-74
2022/01/23 06:51:13;;;;;;;4.90;2.28;;;;;;;;;;5032695;28;20031;-74
2022/01/23 06:53:39;;;;;;;4.13;2.40;;;;;;;;;;5051914;28;20493;-74
2022/01/23 06:56:08;;;;;;;3.85;2.08;;;;;;;;;;5050810;28;20526;-75
2022/01/23 06:58:34;;;;;;;6.10;2.60;;;;;;;;;;5049863;28;20120;-75
2022/01/23 07:01:00;;;;;;;5.50;2.40;;;;;;;;;;5050750;28;20452;-75
2022/01/23 07:03:26;;;;;;;3.80;2.20;;;;;;;;;;5049432;28;20091;-75
2022/01/23 07:05:52;;;;;;;5.70;2.40;;;;;;;;;;5050092;28;20103;-75
2022/01/23 07:08:18;;;;;;;5.78;2.45;;;;;;;;;;5049423;28;20567;-75
2022/01/23 07:10:44;;;;;;;6.05;2.65;;;;;;;;;;5050087;28;20344;-75
2022/01/23 07:13:10;;;;;;;3.88;2.33;;;;;;;;;;5031268;28;20111;-75
2022/01/23 07:15:36;;;;;;;5.65;2.28;;;;;;;;;;5049817;28;20021;-75
2022/01/23 07:18:02;;;;;;;4.00;2.00;;;;;;;;;;5031246;28;20125;-73
2022/01/23 07:20:28;;;;;;;6.35;2.95;;;;;;;;;;5031254;28;20037;-74
2022/01/23 07:22:54;;;;;;;4.35;2.35;;;;;;;;;;5049654;28;20045;-74
2022/01/23 07:25:20;;;;;;;3.70;2.15;;;;;;;;;;5049351;28;20133;-74
2022/01/23 07:27:56;;;;;;;4.80;2.47;;;;;;;;;;5049159;28;20120;-74
2022/01/23 07:30:37;;;;;;;5.78;2.15;;;;;;;;;;5049739;28;20112;-74
2022/01/23 07:33:04;;;;;;;4.55;2.35;;;;;;;;;;5016327;28;20032;-74
2022/01/23 07:35:30;;;;;;;5.18;1.98;;;;;;;;;;5048925;28;20494;-74
2022/01/23 07:37:56;;;;;;;5.03;2.30;;;;;;;;;;5031295;28;20025;-75
2022/01/23 07:40:22;;;;;;;5.82;2.28;;;;;;;;;;5048637;28;20087;-75
2022/01/23 07:42:48;;;;;;;4.25;1.80;;;;;;;;;;5048770;28;20123;-75
2022/01/23 07:45:14;;;;;;;3.83;1.80;;;;;;;;;;5048723;28;20139;-74
2022/01/23 07:47:41;;;;;;;6.18;2.65;;;;;;;;;;5048782;28;20525;-74
2022/01/23 07:50:08;;;;;;;8.25;2.45;;;;;;;;;;5030671;28;20076;-74
2022/01/23 07:52:35;;;;;;;4.07;1.75;;;;;;;;;;5045980;28;20112;-74
2022/01/23 07:55:06;;;;;;;5.43;1.92;;;;;;;;;;5023094;28;20025;-73
2022/01/23 07:57:33;;;;;;;6.45;2.00;;;;;;;;;;5039369;28;20227;-72
2022/01/23 07:59:59;;;;;;;6.93;2.40;;;;;;;;;;5042327;28;20493;-73
2022/01/23 08:02:25;;;;;;;3.33;1.55;;;;;;;;;;5040340;28;20037;-73
2022/01/23 08:04:51;;;;;;;8.90;2.65;;;;;;;;;;5021278;28;20049;-73
2022/01/23 08:10:02;;;;;;;4.20;1.85;;;;;;;;;;5040981;28;20025;-72
2022/01/23 08:12:29;;;;;;;6.13;2.83;;;;;;;;;;5040490;28;20059;-73
2022/01/23 08:14:56;;;;;;;4.88;1.75;;;;;;;;;;5047207;28;20074;-74
2022/01/23 08:17:26;;;;;;;8.07;1.67;;;;;;;;;;5042125;28;20048;-74
2022/01/23 08:19:56;;;;;;;4.70;1.77;;;;;;;;;;5039578;28;20021;-73
2022/01/23 08:22:22;;;;;;;4.03;2.13;;;;;;;;;;5037420;28;20942;-75
2022/01/23 08:24:49;;;;;;;5.68;2.00;;;;;;;;;;5023077;28;20025;-72
2022/01/23 08:27:15;;;;;;;7.25;2.13;;;;;;;;;;5029923;28;20063;-73
2022/01/23 08:29:41;;;;;;;7.63;1.95;;;;;;;;;;5047876;28;20028;-72
2022/01/23 08:32:08;;;;;;;6.00;2.35;;;;;;;;;;5030077;28;20025;-74
2022/01/23 08:34:35;;;;;;;9.25;1.95;;;;;;;;;;5029977;28;20025;-73
2022/01/23 08:37:02;;;;;;;6.43;2.60;;;;;;;;;;5029657;28;20032;-74
2022/01/23 08:39:30;;;;;;;4.85;2.10;;;;;;;;;;5046880;28;20483;-75
2022/01/23 08:41:57;;;;;;;8.35;3.30;;;;;;;;;;5029537;28;20028;-75
2022/01/23 08:44:24;;;;;;;6.75;2.38;;;;;;;;;;5047749;28;20025;-75
2022/01/23 08:46:50;;;;;;;8.35;3.10;;;;;;;;;;5046808;28;20064;-75
2022/01/23 08:49:18;;;;;;;9.57;4.18;;;;;;;;;;5044337;28;20111;-74
2022/01/23 08:51:45;;;;;;;7.85;3.70;;;;;;;;;;5047410;28;20398;-73
2022/01/23 08:54:11;;;;;;;8.73;3.30;;;;;;;;;;5045407;28;20025;-74
2022/01/23 08:56:37;;;;;;;7.80;3.22;;;;;;;;;;5053914;28;20447;-75
2022/01/23 08:59:03;;;;;;;11.00;3.90;;;;;;;;;;5037849;28;20021;-74
2022/01/23 09:01:29;;;;;;;5.20;3.28;;;;;;;;;;5046120;28;20029;-75
2022/01/23 09:03:55;;;;;;;5.15;3.30;;;;;;;;;;5031969;28;20721;-75
2022/01/23 09:06:22;;;;;;;5.43;3.53;;;;;;;;;;5054732;28;20126;-74
2022/01/23 09:08:48;;;;;;;5.88;3.45;;;;;;;;;;5045094;28;20036;-71
2022/01/23 09:11:26;;;;;;;6.32;3.13;;;;;;;;;;5045264;28;20052;-74
2022/01/23 09:14:15;;;;;;;8.20;3.00;;;;;;;;;;5045480;28;20479;-75
2022/01/23 09:16:41;;;;;;;6.20;3.60;;;;;;;;;;5045144;28;20045;-75
2022/01/23 09:19:07;;;;;;;6.53;3.83;;;;;;;;;;5026801;28;20060;-73
2022/01/23 09:21:34;;;;;;;6.97;3.90;;;;;;;;;;5044950;28;20443;-74
2022/01/23 09:24:00;;;;;;;7.05;3.45;;;;;;;;;;5045274;28;20108;-74
2022/01/23 09:26:27;;;;;;;6.20;3.83;;;;;;;;;;5027162;28;20160;-74
2022/01/23 09:28:56;;;;;;;7.22;3.58;;;;;;;;;;5051004;28;20021;-74
2022/01/23 09:31:44;;;;;;;8.15;4.13;;;;;;;;;;5052316;28;20596;-74
2022/01/23 09:34:10;;;;;;;5.60;3.78;;;;;;;;;;5033974;28;20064;-75
2022/01/23 09:36:36;;;;;;;8.07;3.80;;;;;;;;;;5056693;28;20056;-75
2022/01/23 09:39:03;;;;;;;6.72;3.83;;;;;;;;;;5051829;28;20090;-74
2022/01/23 09:41:31;;;;;;;6.38;4.38;;;;;;;;;;5033348;28;20020;-70
2022/01/23 09:43:59;;;;;;;7.65;4.25;;;;;;;;;;5033971;28;20104;-75
2022/01/23 09:46:25;;;;;;;8.38;4.10;;;;;;;;;;5051047;28;20142;-71
2022/01/23 09:48:52;;;;;;;9.13;4.35;;;;;;;;;;5033508;28;20448;-71
2022/01/23 09:51:19;;;;;;;7.40;4.30;;;;;;;;;;5051645;28;20017;-72
2022/01/23 09:53:46;;;;;;;7.32;4.88;;;;;;;;;;5061788;28;20031;-71
2022/01/23 09:56:14;;;;;;;7.80;4.55;;;;;;;;;;5070927;28;20115;-72
2022/01/23 09:58:41;;;;;;;9.07;4.82;;;;;;;;;;5057106;28;20103;-72
2022/01/23 10:01:07;;;;;;;6.22;3.95;;;;;;;;;;5051185;28;20045;-73
2022/01/23 10:03:33;;;;;;;10.20;3.90;;;;;;;;;;5052005;28;20768;-73
2022/01/23 10:05:59;;;;;;;6.20;4.07;;;;;;;;;;5051755;28;20471;-72
2022/01/23 10:08:29;;;;;;;7.43;4.32;;;;;;;;;;5051096;28;20373;-72
2022/01/23 10:10:56;;;;;;;9.15;4.45;;;;;;;;;;5032782;28;20025;-71
2022/01/23 10:13:27;;;;;;;7.05;4.45;;;;;;;;;;5031698;28;20024;-73
2022/01/23 10:15:53;;;;;;;;;;;;;;;;;;5032044;28;20025;-72
2022/01/23 10:18:19;;;;;;;11.43;4.43;;;;;;;;;;5049414;28;19958;-72
2022/01/23 10:20:46;;;;;;;18.58;4.25;;;;;;;;;;5049330;28;20164;-72
2022/01/23 10:23:13;;;;;;;8.27;4.30;;;;;;;;;;5050132;28;20045;-74
2022/01/23 10:25:41;;;;;;;7.93;4.15;;;;;;;;;;5032332;28;20463;-73
2022/01/23 10:28:08;;;;;;;7.30;4.25;;;;;;;;;;5050543;28;20056;-73
2022/01/23 10:30:37;;;;;;;8.63;4.18;;;;;;;;;;5051071;28;20056;-73
2022/01/23 10:33:07;;;;;;;6.47;3.47;;;;;;;;;;5050362;28;20049;-74
2022/01/23 10:35:34;;;;;;;5.47;3.53;;;;;;;;;;5029994;28;20036;-74
2022/01/23 10:38:05;;;;;;;6.53;4.13;;;;;;;;;;5050375;28;20608;-74
2022/01/23 10:40:35;;;;;;;6.32;3.35;;;;;;;;;;5029885;28;20040;-70
2022/01/23 10:48:25;;;;;;;6.55;3.67;;;;;;;;;;5044380;28;20044;-71
2022/01/23 10:50:53;;;;;;;6.13;3.72;;;;;;;;;;5043366;28;20563;-71
2022/01/23 10:53:20;;;;;;;5.43;2.78;;;;;;;;;;5043765;28;20020;-71
2022/01/23 10:55:47;;;;;;;5.35;3.40;;;;;;;;;;5044056;28;20143;-71
2022/01/23 10:58:20;;;;;;;6.35;3.00;;;;;;;;;;5041915;28;20076;-71
2022/01/23 11:00:48;;;;;;;18.75;3.25;;;;;;;;;;5041922;28;20029;-71
2022/01/23 11:03:14;;;;;;;5.40;3.05;;;;;;;;;;5042414;28;20166;-69
2022/01/23 11:05:40;;;;;;;8.45;2.78;;;;;;;;;;5043491;28;21190;-69
2022/01/23 11:08:19;;;;;;;4.93;2.50;;;;;;;;;;5042759;28;20604;-69
2022/01/23 11:10:57;;;;;;;6.18;2.90;;;;;;;;;;5041902;28;20558;-74
2022/01/23 11:19:21;;;;;;;6.18;3.17;;;;;;;;;;5041308;28;20511;-71
2022/01/23 11:21:47;;;;;;;8.05;3.30;;;;;;;;;;5023757;28;20094;-70
2022/01/23 11:24:13;;;;;;;5.20;3.15;;;;;;;;;;5040238;28;20037;-70
2022/01/23 11:26:39;;;;;;;6.72;2.88;;;;;;;;;;5038529;28;20094;-73
2022/01/23 11:29:14;;;;;;;7.70;2.97;;;;;;;;;;5022887;28;20029;-70
2022/01/23 11:31:42;;;;;;;9.70;3.28;;;;;;;;;;5039413;28;20025;-71
2022/01/23 11:34:08;;;;;;;7.72;3.20;;;;;;;;;;5042036;28;20050;-73
2022/01/23 11:36:35;;;;;;;7.72;2.83;;;;;;;;;;5042265;28;20483;-72
2022/01/23 11:39:09;;;;;;;7.63;2.90;;;;;;;;;;5041802;28;20021;-71
2022/01/23 11:55:45;;;;;;;6.30;1.50;;;;;;;;;;5040807;28;20056;-69
2022/01/23 11:58:31;;;;;;;4.80;2.25;;;;;;;;;;5041763;28;20021;-74
2022/01/23 12:01:16;;;;;;;6.00;1.73;;;;;;;;;;5040831;28;20021;-76
2022/01/23 12:04:02;;;;;;;10.07;1.88;;;;;;;;;;5038447;28;20030;-74
2022/01/23 12:06:28;;;;;;;8.65;1.90;;;;;;;;;;5021466;28;20111;-71
2022/01/23 12:09:08;;;;;;;4.05;1.63;;;;;;;;;;5041575;28;20824;-68
2022/01/23 12:11:57;;;;;;;6.03;1.65;;;;;;;;;;5041170;28;20035;-70
2022/01/23 12:17:05;;;;;;;4.25;1.20;;;;;;;;;;5041306;28;20372;-70
2022/01/23 12:19:42;;;;;;;2.70;1.20;;;;;;;;;;5041088;28;20063;-70
2022/01/23 12:22:28;;;;;;;6.93;1.60;;;;;;;;;;5040577;28;20096;-70
2022/01/23 12:24:56;;;;;;;2.97;1.27;;;;;;;;;;5041037;28;20028;-69
2022/01/23 12:27:27;;;;;;;7.07;1.40;;;;;;;;;;5022157;28;20049;-70
2022/01/23 12:29:55;;;;;;;6.78;1.50;;;;;;;;;;5040004;28;20033;-71
2022/01/23 12:32:28;;;;;;;4.28;1.23;;;;;;;;;;5038183;28;20108;-69
2022/01/23 12:34:56;;;;;;;5.03;1.42;;;;;;;;;;5040625;28;20025;-70
2022/01/23 12:37:23;;;;;;;10.23;1.70;;;;;;;;;;5037820;28;20406;-69
2022/01/23 12:40:08;;;;;;;4.38;1.55;;;;;;;;;;5035174;28;20109;-70
2022/01/23 12:42:57;;;;;;;6.22;1.08;;;;;;;;;;5039065;28;20025;-69
2022/01/23 12:45:42;;;;;;;6.80;1.38;;;;;;;;;;5026361;28;20167;-68
2022/01/23 12:48:41;;;;;;;6.60;1.00;;;;;;;;;;5040084;28;20376;-69
2022/01/23 12:51:13;;;;;;;4.13;1.20;;;;;;;;;;4985742;28;20045;-70
2022/01/23 12:53:47;;;;;;;4.53;1.20;;;;;;;;;;5039063;28;20193;-71
2022/01/23 12:56:15;;;;;;;5.55;0.98;;;;;;;;;;5021765;28;20036;-75
2022/01/23 12:58:42;;;;;;;5.75;1.05;;;;;;;;;;5040006;28;20138;-70
2022/01/23 13:01:16;;;;;;;3.65;0.98;;;;;;;;;;5040425;28;20083;-72
2022/01/23 13:03:43;;;;;;;5.20;1.10;;;;;;;;;;5045150;28;20021;-71
2022/01/23 13:06:12;;;;;;;3.47;0.80;;;;;;;;;;5026937;28;21507;-71
2022/01/23 13:08:47;;;;;;;2.40;0.70;;;;;;;;;;5044056;28;20037;-71
2022/01/23 13:11:49;;;;;;;2.53;0.80;;;;;;;;;;5043973;28;20134;-70
2022/01/23 13:14:05;;;;;;;3.75;0.80;;;;;;;;;;5044621;28;20036;-71
2022/01/23 13:16:58;;;;;;;4.50;0.70;;;;;;;;;;5044646;28;20064;-70
2022/01/23 13:19:47;;;;;;;4.10;0.90;;;;;;;;;;5042908;28;20037;-71
2022/01/23 13:28:45;;;;;;;2.42;0.75;;;;;;;;;;5044431;28;20153;-72
2022/01/23 13:30:48;;;;;;;2.15;0.70;;;;;;;;;;5043999;28;20036;-71
2022/01/23 13:33:20;;;;;;;3.22;0.75;;;;;;;;;;5044062;28;20510;-71
2022/01/23 13:35:51;;;;;;;1.90;0.90;;;;;;;;;;5044741;28;20028;-72
2022/01/23 13:38:18;;;;;;;5.68;0.70;;;;;;;;;;5041882;28;20463;-72
2022/01/23 13:40:45;;;;;;;2.80;0.68;;;;;;;;;;5025907;28;20040;-71
2022/01/23 14:04:31;;;;;;;3.25;0.60;;;;;;;;;;5043441;28;20033;-72
2022/01/23 14:06:57;;;;;;;0.75;0.35;;;;;;;;;;5042787;28;20132;-71
2022/01/23 14:09:26;;;;;;;1.48;0.60;;;;;;;;;;5043868;28;20777;-70
2022/01/23 14:11:52;;;;;;;1.55;0.60;;;;;;;;;;5042429;28;20475;-71
2022/01/23 14:14:23;;;;;;;2.15;0.60;;;;;;;;;;5043461;28;20032;-70
2022/01/23 14:16:52;;;;;;;2.17;0.60;;;;;;;;;;5040339;28;20025;-70
2022/01/23 14:19:23;;;;;;;2.25;0.57;;;;;;;;;;5042413;28;20100;-72
2022/01/23 14:21:49;;;;;;;;;;;;;;;;;;5042489;28;20036;-71
2022/01/23 14:24:26;;;;;;;1.23;0.43;;;;;;;;;;5040341;28;19956;-70
2022/01/23 14:26:59;;;;;;;1.27;0.43;;;;;;;;;;5024957;28;20045;-71
2022/01/23 14:29:26;;;;;;;2.22;0.50;;;;;;;;;;5042212;28;20036;-71
2022/01/23 14:32:08;;;;;;;3.33;0.70;;;;;;;;;;5043913;28;20154;-68
2022/01/23 14:34:34;;;;;;;1.50;0.73;;;;;;;;;;5041950;28;20028;-69
2022/01/23 14:37:03;;;;;;;4.57;0.50;;;;;;;;;;5041904;28;20021;-67
2022/01/23 14:39:30;;;;;;;2.95;0.73;;;;;;;;;;5042307;28;20094;-68
2022/01/23 14:41:57;;;;;;;2.15;0.70;;;;;;;;;;5041081;28;20040;-68
2022/01/23 14:44:27;;;;;;;2.05;0.40;;;;;;;;;;5024473;28;20047;-69
2022/01/23 14:46:54;;;;;;;2.10;0.65;;;;;;;;;;5021227;28;20451;-68
2022/01/23 14:49:24;;;;;;;1.38;0.50;;;;;;;;;;5021594;28;20061;-69
2022/01/23 14:51:50;;;;;;;2.38;0.43;;;;;;;;;;5022422;28;20032;-68
2022/01/23 14:54:17;;;;;;;1.50;0.40;;;;;;;;;;5023544;28;20030;-67
2022/01/23 14:56:43;;;;;;;3.95;0.70;;;;;;;;;;5020864;28;20117;-70
2022/01/23 14:59:14;;;;;;;7.85;1.42;;;;;;;;;;5021187;28;20060;-68
2022/01/23 15:01:41;;;;;;;4.72;1.30;;;;;;;;;;5021351;28;20117;-70
2022/01/23 15:04:09;;;;;;;9.20;0.98;;;;;;;;;;5022396;28;20107;-70
2022/01/23 15:06:35;;;;;;;4.80;0.85;;;;;;;;;;5020911;28;20453;-70
2022/01/23 15:09:09;;;;;;;6.22;0.93;;;;;;;;;;5021859;28;20021;-71
2022/01/23 15:11:35;;;;;;;5.10;0.75;;;;;;;;;;5021642;28;20104;-67
2022/01/23 15:14:02;;;;;;;4.57;0.80;;;;;;;;;;5022466;28;20159;-69
2022/01/23 15:16:28;;;;;;;3.28;0.65;;;;;;;;;;5020644;28;20429;-69
2022/01/23 15:18:54;;;;;;;2.97;0.70;;;;;;;;;;5020136;28;20183;-69
2022/01/23 15:21:20;;;;;;;3.67;0.70;;;;;;;;;;5019033;28;20567;-66
2022/01/23 15:23:46;;;;;;;3.45;0.70;;;;;;;;;;5021730;28;20033;-70
2022/01/23 15:26:12;;;;;;;7.60;1.42;;;;;;;;;;5017098;28;20045;-71
2022/01/23 15:28:39;;;;;;;12.20;1.23;;;;;;;;;;5018075;28;20136;-71
2022/01/23 15:31:05;;;;;;;6.32;1.20;;;;;;;;;;5021415;28;20115;-71
2022/01/23 15:33:31;;;;;;;3.85;0.82;;;;;;;;;;5021130;28;20031;-69
2022/01/23 15:35:57;;;;;;;5.32;1.13;;;;;;;;;;5022184;28;20053;-70
2022/01/23 15:38:26;;;;;;;7.57;0.95;;;;;;;;;;5021017;28;20057;-70
2022/01/23 15:40:54;;;;;;;7.13;0.77;;;;;;;;;;5019114;28;20025;-69
2022/01/23 15:43:20;;;;;;;6.07;1.77;;;;;;;;;;5015036;28;20063;-70
2022/01/23 15:45:46;;;;;;;6.70;1.00;;;;;;;;;;5032443;28;20041;-69
2022/01/23 15:48:12;;;;;;;4.63;1.02;;;;;;;;;;5040502;28;20047;-72
2022/01/23 15:50:38;;;;;;;6.25;1.13;;;;;;;;;;5023726;28;20494;-72
2022/01/23 15:53:04;;;;;;;5.07;1.30;;;;;;;;;;5042238;28;20045;-71
2022/01/23 15:55:31;;;;;;;6.65;1.13;;;;;;;;;;5039891;28;20029;-71
2022/01/23 15:57:57;;;;;;;2.42;0.63;;;;;;;;;;5041183;28;20025;-72
2022/01/23 16:00:24;;;;;;;4.82;0.77;;;;;;;;;;5040528;28;20519;-70
2022/01/23 16:02:50;;;;;;;5.45;0.93;;;;;;;;;;5039659;28;20030;-73
2022/01/23 16:05:17;;;;;;;2.10;0.85;;;;;;;;;;5041642;28;20052;-73
2022/01/23 16:07:43;;;;;;;6.38;0.90;;;;;;;;;;5022520;28;20495;-72
2022/01/23 16:10:10;;;;;;;2.40;0.60;;;;;;;;;;5039238;28;20043;-73
2022/01/23 16:12:38;;;;;;;5.82;1.10;;;;;;;;;;5037779;28;20037;-72
2022/01/23 16:15:07;;;;;;;3.50;0.73;;;;;;;;;;5037710;28;20029;-72
2022/01/23 16:17:33;;;;;;;3.92;0.80;;;;;;;;;;5037752;28;20043;-73
2022/01/23 16:20:02;;;;;;;4.40;0.80;;;;;;;;;;5040115;28;20120;-74
2022/01/23 16:22:28;;;;;;;3.17;1.35;;;;;;;;;;5038737;28;20046;-72
2022/01/23 16:24:54;;;;;;;4.40;0.70;;;;;;;;;;5037061;28;20072;-73
2022/01/23 16:27:20;;;;;;;3.33;0.80;;;;;;;;;;5040650;28;20055;-74
2022/01/23 16:29:46;;;;;;;9.18;1.25;;;;;;;;;;5040939;28;20037;-70
2022/01/23 16:32:12;;;;;;;4.55;1.70;;;;;;;;;;5039390;28;20031;-70
2022/01/23 16:34:38;;;;;;;4.45;0.70;;;;;;;;;;5042608;28;20036;-70
2022/01/23 16:37:04;;;;;;;5.22;0.93;;;;;;;;;;5021261;28;20078;-70
2022/01/23 16:39:31;;;;;;;4.63;0.98;;;;;;;;;;5040904;28;20029;-70
2022/01/23 16:41:57;;;;;;;4.65;0.80;;;;;;;;;;5040495;28;20538;-69
2022/01/23 16:44:24;;;;;;;5.43;1.00;;;;;;;;;;5022869;28;20070;-69
2022/01/23 16:46:52;;;;;;;4.53;0.77;;;;;;;;;;5039781;28;21351;-69
2022/01/23 16:49:18;;;;;;;6.75;1.17;;;;;;;;;;5022595;28;20062;-68
2022/01/23 16:51:45;;;;;;;5.18;1.00;;;;;;;;;;5040144;28;20040;-68
2022/01/23 16:54:12;;;;;;;2.75;0.73;;;;;;;;;;5040568;28;20103;-70
2022/01/23 16:56:39;;;;;;;3.20;1.00;;;;;;;;;;5041620;28;20032;-70
2022/01/23 16:59:06;;;;;;;6.50;0.90;;;;;;;;;;5041202;28;20146;-71
2022/01/23 17:01:32;;;;;;;4.25;0.90;;;;;;;;;;5042367;28;20029;-70
2022/01/23 17:03:59;;;;;;;3.00;0.82;;;;;;;;;;5023415;28;20033;-70
2022/01/23 17:06:26;;;;;;;1.77;0.80;;;;;;;;;;5038909;28;20048;-69
2022/01/23 17:08:52;;;;;;;3.95;0.90;;;;;;;;;;5037824;28;20027;-72
2022/01/23 17:11:19;;;;;;;4.10;1.10;;;;;;;;;;5039977;28;20158;-71
2022/01/23 17:13:45;;;;;;;4.20;0.90;;;;;;;;;;5040625;28;20036;-71
2022/01/23 17:16:11;;;;;;;4.45;1.10;;;;;;;;;;5039307;28;20540;-71
2022/01/23 17:18:37;;;;;;;4.82;1.08;;;;;;;;;;5041927;28;20120;-72
2022/01/23 17:21:03;;;;;;;3.63;0.80;;;;;;;;;;5039736;28;20543;-72
2022/01/23 17:23:30;;;;;;;3.92;1.00;;;;;;;;;;5040916;28;20063;-71
2022/01/23 17:25:56;;;;;;;4.15;1.08;;;;;;;;;;5041616;28;20120;-72
2022/01/23 17:28:22;;;;;;;2.17;0.70;;;;;;;;;;5040844;28;20526;-72
2022/01/23 17:30:48;;;;;;;3.30;1.20;;;;;;;;;;5040816;28;20029;-71
2022/01/23 17:33:14;;;;;;;3.95;0.80;;;;;;;;;;5042439;28;20032;-72
2022/01/23 17:35:40;;;;;;;3.28;0.95;;;;;;;;;;5042412;28;20033;-72
2022/01/23 17:38:07;;;;;;;2.38;0.95;;;;;;;;;;5042627;28;20029;-72
2022/01/23 17:40:33;;;;;;;2.88;0.95;;;;;;;;;;5041325;28;20021;-71
2022/01/23 17:42:59;;;;;;;4.13;2.00;;;;;;;;;;5023925;28;20447;-70
2022/01/23 17:45:37;;;;;;;7.07;2.60;;;;;;;;;;5041206;28;20045;-70
2022/01/23 17:50:50;;;;;;;4.18;2.33;;;;;;;;;;5045183;28;20124;-70
2022/01/23 17:53:17;;;;;;;4.53;2.38;;;;;;;;;;5026815;28;20024;-70
2022/01/23 17:55:43;;;;;;;8.38;2.33;;;;;;;;;;5044981;28;20032;-71
2022/01/23 17:58:09;;;;;;;4.45;2.08;;;;;;;;;;5043890;28;20079;-72
2022/01/23 18:00:37;;;;;;;4.70;2.70;;;;;;;;;;5044968;28;20029;-71
2022/01/23 18:03:06;;;;;;;6.65;2.13;;;;;;;;;;5044478;28;20040;-71
2022/01/23 18:05:37;;;;;;;5.18;2.58;;;;;;;;;;5045022;28;20017;-72
2022/01/23 18:08:07;;;;;;;5.70;2.97;;;;;;;;;;5041216;28;20025;-71
2022/01/23 18:10:34;;;;;;;5.25;3.13;;;;;;;;;;5043010;28;20033;-70
2022/01/23 18:13:01;;;;;;;5.55;3.05;;;;;;;;;;5044204;28;20044;-70